createdAt,value
2018-10-03T00:18:40.696Z,3.00
2018-10-03T01:18:34.417Z,3.40
2018-10-03T01:24:06.877Z,3.93
2018-10-03T02:12:14.536Z,2.07
2018-10-03T02:23:41.114Z,3.00
2018-10-03T03:23:22.438Z,2.20
2018-10-03T03:25:50.680Z,1.73
2018-10-03T03:28:18.943Z,2.97
2018-10-03T03:30:47.239Z,2.20
2018-10-03T03:33:15.516Z,2.47
2018-10-03T03:35:43.828Z,3.37
2018-10-03T03:38:12.094Z,1.97
2018-10-03T03:40:40.345Z,1.97
2018-10-03T03:43:08.609Z,3.37
2018-10-03T03:45:36.869Z,2.60
2018-10-03T03:48:05.137Z,3.10
2018-10-03T03:50:33.373Z,2.43
2018-10-03T03:53:01.625Z,2.40
2018-10-03T03:55:29.901Z,3.00
2018-10-03T03:57:58.166Z,2.60
2018-10-03T04:00:26.474Z,3.43
2018-10-03T04:02:54.736Z,2.33
2018-10-03T04:05:23.049Z,1.93
2018-10-03T04:07:51.304Z,2.27
2018-10-03T04:10:19.546Z,2.70
2018-10-03T04:24:51.146Z,2.77
2018-10-03T04:27:19.446Z,1.83
2018-10-03T04:29:47.682Z,2.93
2018-10-03T04:32:15.940Z,2.40
2018-10-03T04:34:44.217Z,3.07
2018-10-03T04:37:12.474Z,3.17
2018-10-03T04:39:40.717Z,2.27
2018-10-03T04:42:08.994Z,3.60
2018-10-03T04:44:37.247Z,2.83
2018-10-03T04:47:05.544Z,2.93
2018-10-03T04:49:33.809Z,2.20
2018-10-03T04:52:02.050Z,2.03
2018-10-03T04:54:30.325Z,2.53
2018-10-03T04:56:58.577Z,2.23
2018-10-03T04:59:26.880Z,1.80
2018-10-03T05:01:55.131Z,1.63
2018-10-03T05:04:23.418Z,2.10
2018-10-03T05:06:51.700Z,2.03
2018-10-03T05:09:19.964Z,2.17
2018-10-03T05:11:48.237Z,1.37
2018-10-03T05:14:16.503Z,1.60
2018-10-03T05:16:44.797Z,2.10
2018-10-03T05:19:13.054Z,1.63
2018-10-03T05:21:41.309Z,1.77
2018-10-03T05:24:09.618Z,2.10
2018-10-03T05:26:37.900Z,2.00
2018-10-03T05:29:06.207Z,1.57
2018-10-03T05:31:34.555Z,1.90
2018-10-03T05:34:02.824Z,2.17
2018-10-03T05:36:31.090Z,2.73
2018-10-03T05:38:59.329Z,1.90
2018-10-03T05:41:27.593Z,2.50
2018-10-03T05:43:55.864Z,2.50
2018-10-03T05:46:24.105Z,1.60
2018-10-03T05:48:52.500Z,2.53
2018-10-03T05:51:20.690Z,2.37
2018-10-03T05:53:48.989Z,2.10
2018-10-03T05:56:17.258Z,2.67
2018-10-03T05:58:45.538Z,1.87
2018-10-03T06:01:13.817Z,2.27
2018-10-03T06:03:42.089Z,1.70
2018-10-03T06:06:10.467Z,2.20
2018-10-03T06:08:38.741Z,1.80
2018-10-03T06:11:07.028Z,2.30
2018-10-03T06:19:42.199Z,2.07
2018-10-03T07:23:20.871Z,1.97
2018-10-03T10:14:51.033Z,1.60
2018-10-03T10:17:19.301Z,1.80
2018-10-03T10:22:52.213Z,1.70
2018-10-03T10:25:20.622Z,1.03
2018-10-03T10:27:48.897Z,1.43
2018-10-03T10:30:17.222Z,1.50
2018-10-03T10:32:45.545Z,1.10
2018-10-03T10:35:13.764Z,0.73
2018-10-03T10:37:42.047Z,1.00
2018-10-03T10:40:10.361Z,1.20
2018-10-03T10:42:38.593Z,1.70
2018-10-03T10:45:07.172Z,1.77
2018-10-03T10:47:35.398Z,1.70
2018-10-03T10:50:03.677Z,1.63
2018-10-03T10:52:31.934Z,1.33
2018-10-03T10:55:00.194Z,1.87
2018-10-03T10:57:28.436Z,1.50
2018-10-03T10:59:56.699Z,1.50
2018-10-03T11:02:25.819Z,1.67
2018-10-03T11:04:54.050Z,1.30
2018-10-03T11:07:22.331Z,1.60
2018-10-03T11:09:50.609Z,1.63
2018-10-03T11:12:18.918Z,1.50
2018-10-03T11:23:53.152Z,1.77
2018-10-03T11:29:13.614Z,1.70
2018-10-03T11:31:41.861Z,1.60
2018-10-03T11:34:10.135Z,1.50
2018-10-03T11:36:38.367Z,1.50
2018-10-03T11:39:08.273Z,1.37
2018-10-03T11:41:36.612Z,1.33
2018-10-03T11:44:04.844Z,1.80
2018-10-03T11:46:33.081Z,1.60
2018-10-03T11:49:01.362Z,1.70
2018-10-03T11:51:29.657Z,1.63
2018-10-03T11:53:57.940Z,2.00
2018-10-03T11:56:26.258Z,1.33
2018-10-03T11:58:54.485Z,1.70
2018-10-03T12:01:22.737Z,1.47
2018-10-03T12:03:51.007Z,1.60
2018-10-03T12:06:19.293Z,1.50
2018-10-03T12:08:47.585Z,1.80
2018-10-03T12:11:15.905Z,1.37
2018-10-03T12:13:44.205Z,1.30
2018-10-03T13:28:27.217Z,1.90
2018-10-03T13:30:55.526Z,1.83
2018-10-03T13:33:23.801Z,2.20
2018-10-03T13:35:52.131Z,1.60
2018-10-03T13:38:20.345Z,1.90
2018-10-03T13:40:48.597Z,1.87
2018-10-03T13:43:16.857Z,1.60
2018-10-03T13:45:45.121Z,2.00
2018-10-03T13:48:13.358Z,1.70
2018-10-03T13:50:41.629Z,1.77
2018-10-03T13:53:09.878Z,2.10
2018-10-03T13:55:38.154Z,2.60
2018-10-03T13:58:06.495Z,2.00
2018-10-03T14:00:35.324Z,1.97
2018-10-03T14:03:03.571Z,2.37
2018-10-03T14:05:31.817Z,2.07
2018-10-03T14:08:00.093Z,2.70
2018-10-03T14:10:28.351Z,2.13
2018-10-03T14:13:00.417Z,2.00
2018-10-03T14:21:35.290Z,2.10
2018-10-03T15:27:58.873Z,1.70
2018-10-03T15:30:27.122Z,1.47
2018-10-03T15:32:55.377Z,1.47
2018-10-03T15:35:23.655Z,1.80
2018-10-03T15:37:51.990Z,1.20
2018-10-03T15:40:20.222Z,1.63
2018-10-03T15:42:48.467Z,1.73
2018-10-03T15:45:16.742Z,1.00
2018-10-03T15:47:44.992Z,1.60
2018-10-03T15:50:13.221Z,1.63
2018-10-03T15:52:41.458Z,1.40
2018-10-03T15:55:09.816Z,1.30
2018-10-03T15:57:37.997Z,1.20
2018-10-03T16:00:06.584Z,1.67
2018-10-03T16:02:34.844Z,1.77
2018-10-03T16:05:03.115Z,1.87
2018-10-03T16:07:31.361Z,1.63
2018-10-03T16:09:59.647Z,1.50
2018-10-03T16:12:27.944Z,1.57
2018-10-03T16:14:56.200Z,1.50
2018-10-03T16:17:24.441Z,1.37
2018-10-03T16:19:52.691Z,1.73
2018-10-03T16:22:20.938Z,1.87
2018-10-03T16:24:49.191Z,1.90
2018-10-03T16:27:17.497Z,1.10
2018-10-03T16:29:45.798Z,1.57
2018-10-03T16:32:14.096Z,1.30
2018-10-03T16:34:42.307Z,1.20
2018-10-03T16:37:10.542Z,1.13
2018-10-03T16:39:38.821Z,1.40
2018-10-03T16:42:07.125Z,1.83
2018-10-03T16:44:35.407Z,1.40
2018-10-03T16:47:03.676Z,1.37
2018-10-03T16:49:31.949Z,1.40
2018-10-03T16:52:00.205Z,1.73
2018-10-03T16:54:28.465Z,1.07
2018-10-03T16:56:56.787Z,1.40
2018-10-03T16:59:25.025Z,1.30
2018-10-03T17:01:53.293Z,1.60
2018-10-03T17:04:21.538Z,1.07
2018-10-03T17:06:49.857Z,1.23
2018-10-03T17:09:18.089Z,1.60
2018-10-03T17:11:46.346Z,1.13
2018-10-03T17:14:30.053Z,1.20
2018-10-03T17:16:58.350Z,1.43
2018-10-03T17:19:37.101Z,1.67
2018-10-03T17:22:05.508Z,1.50
2018-10-03T17:24:35.137Z,1.70
2018-10-03T17:29:55.701Z,1.40
2018-10-03T17:32:23.924Z,1.20
2018-10-03T17:34:52.161Z,2.10
2018-10-03T17:37:20.378Z,1.83
2018-10-03T17:39:48.625Z,1.40
2018-10-03T17:42:16.889Z,1.57
2018-10-03T17:44:45.175Z,1.60
2018-10-03T17:47:13.445Z,1.90
2018-10-03T17:49:41.726Z,1.50
2018-10-03T17:52:09.991Z,1.33
2018-10-03T17:54:38.277Z,1.10
2018-10-03T17:57:06.641Z,1.07
2018-10-03T17:59:34.920Z,1.17
2018-10-03T18:02:06.247Z,1.17
2018-10-03T18:04:34.562Z,1.60
2018-10-03T18:07:02.830Z,1.50
2018-10-03T18:09:31.078Z,0.97
2018-10-03T18:11:59.354Z,1.20
2018-10-03T18:14:40.772Z,1.40
2018-10-03T18:17:09.042Z,2.10
2018-10-03T18:22:30.332Z,1.80
2018-10-03T19:16:27.462Z,2.00
2018-10-03T19:18:55.677Z,2.57
2018-10-03T19:21:23.919Z,1.53
2018-10-03T19:26:46.218Z,1.33
2018-10-03T19:29:15.046Z,1.43
2018-10-03T19:31:43.337Z,1.93
2018-10-03T19:34:11.573Z,1.70
2018-10-03T19:36:39.829Z,1.50
2018-10-03T19:39:08.618Z,1.30
2018-10-03T19:41:37.135Z,1.30
2018-10-03T19:44:05.409Z,1.60
2018-10-03T19:46:33.690Z,1.67
2018-10-03T19:49:01.962Z,1.03
2018-10-03T19:51:30.289Z,1.60
2018-10-03T19:53:58.547Z,1.67
2018-10-03T19:56:26.817Z,1.73
2018-10-03T19:58:55.093Z,1.83
2018-10-03T20:01:23.345Z,1.87
2018-10-03T20:03:51.770Z,1.60
2018-10-03T20:06:19.998Z,1.77
2018-10-03T20:08:48.284Z,1.30
2018-10-03T20:11:16.553Z,1.57
2018-10-03T20:16:38.198Z,2.20
2018-10-03T20:19:06.749Z,1.57
2018-10-03T20:21:35.089Z,1.70
2018-10-03T20:24:04.153Z,1.57
2018-10-03T20:26:32.434Z,1.63
2018-10-03T20:29:00.651Z,1.90
2018-10-03T20:31:28.909Z,2.00
2018-10-03T20:33:57.156Z,1.67
2018-10-03T20:36:25.429Z,1.70
2018-10-03T20:38:53.677Z,1.60
2018-10-03T20:41:21.914Z,1.80
2018-10-03T20:43:50.161Z,1.90
2018-10-03T20:46:18.467Z,1.53
2018-10-03T20:48:47.621Z,1.80
2018-10-03T20:51:15.934Z,1.97
2018-10-03T20:53:44.179Z,1.70
2018-10-03T20:56:12.450Z,1.40
2018-10-03T20:58:40.709Z,2.10
2018-10-03T21:01:08.963Z,1.60
2018-10-03T21:03:37.238Z,1.40
2018-10-03T21:06:05.487Z,1.33
2018-10-03T21:08:33.746Z,1.80
2018-10-03T21:11:02.015Z,1.90
2018-10-03T21:13:30.290Z,1.40
2018-10-03T21:15:58.549Z,1.90
2018-10-03T21:18:26.790Z,1.80
2018-10-03T21:21:13.600Z,1.77
2018-10-03T21:23:53.832Z,1.50
2018-10-03T21:26:22.149Z,1.43
2018-10-03T21:28:50.462Z,1.37
2018-10-03T21:31:18.727Z,1.50
2018-10-03T21:33:47.016Z,1.80
2018-10-03T21:36:15.437Z,1.77
2018-10-03T21:38:43.733Z,2.00
2018-10-03T21:41:11.993Z,1.80
2018-10-03T21:43:40.262Z,1.77
2018-10-03T21:46:08.528Z,1.90
2018-10-03T21:48:36.780Z,2.00
2018-10-03T21:51:05.053Z,2.53
2018-10-03T21:53:33.333Z,1.50
2018-10-03T21:56:01.609Z,2.10
2018-10-03T21:58:29.934Z,1.80
2018-10-03T22:00:58.190Z,2.00
2018-10-03T22:03:26.443Z,1.67
2018-10-03T22:05:54.708Z,1.60
2018-10-03T22:08:22.957Z,1.70
2018-10-03T22:10:51.219Z,1.70
2018-10-03T22:25:09.865Z,2.13
